Daniela Morace — IJAJ2 — position and weather

sailwx.info

Track history (hours):
 
Tides and Currents Weather Stations Pressure Air Temp Water Temp Dewpoint Dewpoint Depression Visibility Wind Speed Wind Dir Waves Ship Positions

Daniela Morace

Last reported at 2014-Aug-30 13:27 UTC. Time now 2014-Aug-30 20:33 UTC.
Position N 38°11' E 015°34'.

Length 36 m; draft 1.5 m.

Type: Ship. MMSI: 247297500.

Date/timePositionNaut miles runAvg speedWind from/ knotsBaromVisibWave heightAir tempDewpointWater temp
2014-Aug-30 13:27N 38°11' E 015°34'5 0.1
2014-Aug-28 13:25N 38°14' E 015°39'4 3.9
2014-Aug-28 12:28N 38°18' E 015°39'4 0.5
2014-Aug-28 05:18N 38°14' E 015°38'5 0.7
2014-Aug-27 22:24N 38°11' E 015°34'0 0.0
2014-Aug-27 21:28N 38°11' E 015°34'0 0.0
2014-Aug-27 20:33N 38°11' E 015°34'0 0.2
2014-Aug-27 19:28N 38°11' E 015°34'0 0.0
2014-Aug-26 13:28N 38°11' E 015°34'3 0.1
2014-Aug-24 13:33N 38°13' E 015°37'3 0.1
2014-Aug-22 13:33N 38°12' E 015°34'3 0.1
2014-Aug-21 13:30N 38°13' E 015°37'  
Track history (hours):
 
Tides and Currents Weather Stations Pressure Air Temp Water Temp Dewpoint Dewpoint Depression Visibility Wind Speed Wind Dir Waves Ship Positions

Daniela Morace

Last reported at 2014-Aug-30 13:27 UTC. Time now 2014-Aug-30 20:33 UTC.
Position N 38°11' E 015°34'.

Length 36 m; draft 1.5 m.

Type: Ship. MMSI: 247297500.

Date/timePositionNaut miles runAvg speedWind from/ knotsBaromVisibWave heightAir tempDewpointWater temp
2014-Aug-30 13:27N 38°11' E 015°34'5 0.1
2014-Aug-28 13:25N 38°14' E 015°39'4 3.9
2014-Aug-28 12:28N 38°18' E 015°39'4 0.5
2014-Aug-28 05:18N 38°14' E 015°38'5 0.7
2014-Aug-27 22:24N 38°11' E 015°34'0 0.0
2014-Aug-27 21:28N 38°11' E 015°34'0 0.0
2014-Aug-27 20:33N 38°11' E 015°34'0 0.2
2014-Aug-27 19:28N 38°11' E 015°34'0 0.0
2014-Aug-26 13:28N 38°11' E 015°34'3 0.1
2014-Aug-24 13:33N 38°13' E 015°37'3 0.1
2014-Aug-22 13:33N 38°12' E 015°34'3 0.1
2014-Aug-21 13:30N 38°13' E 015°37'  

Dump ship's entire track history